Portada
METAR-TAF:

METAR-TAF

Aeropuertos :

Yida, Arabia Saudita

Aeropuerto Internacional Rey Abdulaziz

latitud: 21-42N, longitud: 039-11E, altitud: 15 m

Observación

El informe se hizo hace 26 minutos, a las 04:00 UTC
Viento 4 kt del norte
Temperatura 25°C
Humedad 54%
Presión 1010 hPa
Visibilidad 10 km o más
Escasas nubes a una altura de 4000 ft

METAR: OEJN 280400Z 35004KT 9999 FEW040 25/15 Q1010 NOSIG

Hora: 07:26 (04:26 UTC)

Pronóstico

El informe se hizo hace 5 horas y 26 minutos, a las 23:00 UTC
Pronóstico válido del 28 a las 00 UTC al 29 a las 06 UTC
Viento 10 kt del norte
Visibilidad 10 km o más
Nubes dispersas a una altura de 4000 ft
Nubes dispersas a una altura de 10000 ft
Evolucionando progresivamente
del 28 a las 06 UTC al 28 a las 08 UTC
Viento 10 kt del norte-noroeste con ráfagas de 20 kt

TAF: OEJN 272300Z 2800/2906 36010KT 9999 SCT040 SCT100 BECMG 2806/2808 33010G20KT

Observaciones y pronósticos meteorológicos de más de 4000 aeropuertos (mensajes METAR y TAF).

Los puntos amarillos y rojos representan las estaciones disponibles.

Ponga el ratón en el punto deseado para ver el nombre de la estación.

Haga clic para ver las observaciones y los pronósticos meteorológicos.

Para cambiar el mapa : haga clic en los botones verdes con una cruz de color negro para hacer un zoom, en el botón verde con un guión para alejar o en las flechas verdes para mapas adyacentes.


METAR-TAF: